Time;durP1;ratioP1;P1;durP2;ratioP2;P2;SDS_P1;SDS_P2;PMS_P1;PMS_P2;Temp;Humidity;BMP_temperature;BMP_pressure;BME280_temperature;BME280_humidity;BME280_pressure;Samples;Min_cycle;Max_cycle;Signal;HPM_P1;HPM_P2
2023/01/13 00:00:45;;;;;;;0.10;0.10;;;;;;;;;;5075748;28;20241;-69
2023/01/13 00:03:11;;;;;;;0.20;0.20;;;;;;;;;;5085538;28;20226;-69
2023/01/13 00:05:38;;;;;;;0.10;0.10;;;;;;;;;;5075547;28;20240;-69
2023/01/13 00:08:05;;;;;;;0.10;0.10;;;;;;;;;;5085624;28;20243;-69
2023/01/13 00:10:31;;;;;;;0.10;0.10;;;;;;;;;;5075742;28;20580;-68
2023/01/13 00:12:59;;;;;;;0.10;0.10;;;;;;;;;;5085426;28;20466;-69
2023/01/13 00:15:25;;;;;;;0.10;0.10;;;;;;;;;;5075586;28;20292;-69
2023/01/13 00:17:52;;;;;;;0.10;0.10;;;;;;;;;;5084869;28;20445;-68
2023/01/13 00:20:18;;;;;;;0.10;0.10;;;;;;;;;;5075734;28;20203;-69
2023/01/13 00:22:45;;;;;;;0.10;0.10;;;;;;;;;;5085259;28;20279;-68
2023/01/13 00:25:11;;;;;;;0.10;0.10;;;;;;;;;;5075732;28;20290;-69
2023/01/13 00:27:38;;;;;;;0.10;0.10;;;;;;;;;;5084699;28;20222;-68
2023/01/13 00:30:06;;;;;;;0.10;0.10;;;;;;;;;;5085921;28;20223;-69
2023/01/13 00:32:33;;;;;;;0.10;0.10;;;;;;;;;;5074405;28;20237;-69
2023/01/13 00:34:59;;;;;;;0.10;0.10;;;;;;;;;;5085951;28;20206;-69
2023/01/13 00:37:26;;;;;;;0.10;0.10;;;;;;;;;;5074583;28;20255;-69
2023/01/13 00:39:52;;;;;;;0.10;0.10;;;;;;;;;;5085557;28;20270;-68
2023/01/13 00:45:03;;;;;;;0.10;0.10;;;;;;;;;;5085482;28;20251;-69
2023/01/13 00:47:31;;;;;;;0.10;0.10;;;;;;;;;;5074113;28;20255;-69
2023/01/13 00:49:57;;;;;;;0.20;0.20;;;;;;;;;;5085620;28;20207;-69
2023/01/13 00:52:24;;;;;;;0.10;0.10;;;;;;;;;;5074136;28;20456;-69
2023/01/13 00:54:50;;;;;;;0.10;0.10;;;;;;;;;;5085487;28;20203;-68
2023/01/13 00:57:17;;;;;;;0.10;0.10;;;;;;;;;;5073922;28;20450;-68
2023/01/13 00:59:44;;;;;;;0.10;0.10;;;;;;;;;;5085467;28;20207;-68
2023/01/13 01:02:10;;;;;;;0.10;0.10;;;;;;;;;;5073986;28;20565;-68
2023/01/13 01:04:38;;;;;;;0.10;0.10;;;;;;;;;;5085148;28;20203;-68
2023/01/13 01:07:04;;;;;;;0.10;0.10;;;;;;;;;;5073720;28;20239;-68
2023/01/13 01:09:33;;;;;;;0.10;0.10;;;;;;;;;;5085110;28;20522;-68
2023/01/13 01:12:00;;;;;;;0.10;0.10;;;;;;;;;;5073382;28;20243;-68
2023/01/13 01:14:26;;;;;;;0.10;0.10;;;;;;;;;;5084956;28;20387;-68
2023/01/13 01:16:53;;;;;;;0.10;0.10;;;;;;;;;;5073662;28;20627;-68
2023/01/13 01:19:19;;;;;;;0.10;0.10;;;;;;;;;;5084800;28;20211;-68
2023/01/13 01:21:47;;;;;;;0.10;0.10;;;;;;;;;;5073489;28;20449;-68
2023/01/13 01:24:15;;;;;;;0.10;0.10;;;;;;;;;;5084500;28;20262;-68
2023/01/13 01:26:41;;;;;;;0.10;0.10;;;;;;;;;;5073189;28;20273;-69
2023/01/13 01:29:08;;;;;;;0.10;0.10;;;;;;;;;;5083253;28;20225;-69
2023/01/13 01:31:35;;;;;;;0.10;0.10;;;;;;;;;;5073105;28;20297;-68
2023/01/13 01:34:01;;;;;;;0.10;0.10;;;;;;;;;;5084103;28;20269;-68
2023/01/13 01:36:28;;;;;;;0.10;0.10;;;;;;;;;;5073236;28;20265;-68
2023/01/13 01:38:57;;;;;;;0.10;0.10;;;;;;;;;;5084204;28;20374;-68
2023/01/13 01:41:24;;;;;;;0.10;0.10;;;;;;;;;;5073229;28;20243;-68
2023/01/13 01:44:01;;;;;;;0.10;0.10;;;;;;;;;;5083820;28;20209;-68
2023/01/13 01:46:29;;;;;;;0.10;0.10;;;;;;;;;;5072991;28;20239;-68
2023/01/13 01:48:56;;;;;;;0.10;0.10;;;;;;;;;;5084058;28;20274;-68
2023/01/13 01:51:22;;;;;;;0.10;0.10;;;;;;;;;;5073068;28;20320;-68
2023/01/13 01:53:49;;;;;;;0.10;0.10;;;;;;;;;;5083629;28;20239;-69
2023/01/13 01:56:17;;;;;;;0.10;0.10;;;;;;;;;;5073038;28;20247;-69
2023/01/13 01:58:45;;;;;;;0.10;0.10;;;;;;;;;;5083512;28;20277;-69
2023/01/13 02:01:11;;;;;;;0.10;0.10;;;;;;;;;;5073091;28;20317;-68
2023/01/13 02:03:41;;;;;;;0.10;0.10;;;;;;;;;;5083647;28;20205;-68
2023/01/13 02:06:08;;;;;;;0.10;0.10;;;;;;;;;;5072997;28;20304;-68
2023/01/13 02:08:34;;;;;;;0.10;0.10;;;;;;;;;;5083229;28;20270;-68
2023/01/13 02:11:01;;;;;;;0.10;0.10;;;;;;;;;;5073162;28;20242;-68
2023/01/13 02:13:28;;;;;;;0.20;0.20;;;;;;;;;;5083402;28;20238;-68
2023/01/13 02:15:57;;;;;;;0.10;0.10;;;;;;;;;;5073091;28;20235;-68
2023/01/13 02:18:36;;;;;;;0.10;0.10;;;;;;;;;;5083117;28;20218;-68
2023/01/13 02:21:20;;;;;;;0.10;0.10;;;;;;;;;;5072885;28;20310;-68
2023/01/13 02:27:05;;;;;;;0.10;0.10;;;;;;;;;;5072312;28;20234;-68
2023/01/13 02:32:27;;;;;;;0.20;0.20;;;;;;;;;;5072412;28;20242;-68
2023/01/13 02:34:56;;;;;;;0.20;0.20;;;;;;;;;;5083587;28;20274;-68
2023/01/13 02:37:28;;;;;;;0.10;0.10;;;;;;;;;;5072209;28;20431;-68
2023/01/13 02:39:55;;;;;;;0.10;0.10;;;;;;;;;;5083588;28;20236;-68
2023/01/13 02:45:11;;;;;;;0.10;0.10;;;;;;;;;;5079982;28;20186;-68
2023/01/13 02:47:39;;;;;;;0.20;0.20;;;;;;;;;;5082512;28;20257;-68
2023/01/13 02:50:08;;;;;;;0.10;0.10;;;;;;;;;;5083359;28;20408;-68
2023/01/13 02:52:36;;;;;;;0.10;0.10;;;;;;;;;;5072077;28;20279;-68
2023/01/13 02:55:05;;;;;;;0.10;0.10;;;;;;;;;;5083601;28;20231;-68
2023/01/13 02:57:32;;;;;;;0.10;0.10;;;;;;;;;;5072171;28;20305;-68
2023/01/13 02:59:59;;;;;;;0.10;0.10;;;;;;;;;;5083602;28;20450;-68
2023/01/13 03:02:27;;;;;;;0.10;0.10;;;;;;;;;;5071912;28;20301;-68
2023/01/13 03:04:55;;;;;;;0.20;0.20;;;;;;;;;;5083471;28;20296;-68
2023/01/13 03:07:39;;;;;;;0.10;0.10;;;;;;;;;;5071990;28;20592;-68
2023/01/13 03:10:10;;;;;;;0.10;0.10;;;;;;;;;;5083443;28;20376;-68
2023/01/13 03:12:40;;;;;;;0.10;0.10;;;;;;;;;;5071879;28;20211;-68
2023/01/13 03:15:09;;;;;;;0.10;0.10;;;;;;;;;;5083677;28;20516;-68
2023/01/13 03:17:41;;;;;;;0.10;0.10;;;;;;;;;;5071763;28;20225;-68
2023/01/13 03:20:09;;;;;;;0.10;0.10;;;;;;;;;;5080126;28;20259;-69
2023/01/13 03:22:39;;;;;;;0.10;0.10;;;;;;;;;;5082077;28;20219;-68
2023/01/13 03:25:08;;;;;;;0.10;0.10;;;;;;;;;;5083295;28;20228;-68
2023/01/13 03:27:40;;;;;;;0.10;0.10;;;;;;;;;;5071339;28;20227;-68
2023/01/13 03:30:09;;;;;;;0.10;0.10;;;;;;;;;;5083249;28;20469;-68
2023/01/13 03:32:39;;;;;;;0.10;0.10;;;;;;;;;;5071843;28;20219;-68
2023/01/13 03:35:09;;;;;;;0.10;0.10;;;;;;;;;;5083264;28;20199;-68
2023/01/13 03:37:37;;;;;;;0.10;0.10;;;;;;;;;;5051319;28;20271;-68
2023/01/13 03:40:05;;;;;;;0.10;0.10;;;;;;;;;;5063177;28;20448;-67
2023/01/13 03:42:33;;;;;;;0.10;0.10;;;;;;;;;;5051599;28;20233;-68
2023/01/13 03:45:02;;;;;;;0.10;0.10;;;;;;;;;;5062803;28;20275;-68
2023/01/13 03:47:30;;;;;;;0.10;0.10;;;;;;;;;;5085088;28;20235;-68
2023/01/13 03:50:00;;;;;;;0.10;0.10;;;;;;;;;;5062767;28;20204;-68
2023/01/13 03:52:29;;;;;;;0.20;0.20;;;;;;;;;;5087446;28;20239;-68
2023/01/13 03:54:57;;;;;;;0.10;0.10;;;;;;;;;;5066256;28;20208;-68
2023/01/13 03:57:26;;;;;;;0.10;0.10;;;;;;;;;;5088290;28;20243;-68
2023/01/13 03:59:54;;;;;;;0.10;0.10;;;;;;;;;;5066191;28;20205;-68
2023/01/13 04:02:23;;;;;;;0.10;0.10;;;;;;;;;;5088079;28;20254;-68
2023/01/13 04:04:51;;;;;;;0.10;0.10;;;;;;;;;;5066407;28;20263;-68
2023/01/13 04:07:23;;;;;;;0.10;0.10;;;;;;;;;;5088352;28;20467;-68
2023/01/13 04:09:51;;;;;;;0.10;0.10;;;;;;;;;;5066176;28;20192;-67
2023/01/13 04:12:20;;;;;;;0.10;0.10;;;;;;;;;;5088003;28;20242;-68
2023/01/13 04:14:46;;;;;;;0.27;0.27;;;;;;;;;;5065939;28;20276;-68
2023/01/13 04:17:13;;;;;;;0.10;0.10;;;;;;;;;;5087987;28;20318;-69
2023/01/13 04:19:39;;;;;;;0.10;0.10;;;;;;;;;;5065802;28;20273;-68
2023/01/13 04:22:06;;;;;;;0.10;0.10;;;;;;;;;;5087665;28;20306;-68
2023/01/13 04:24:33;;;;;;;0.10;0.10;;;;;;;;;;5065643;28;20279;-68
2023/01/13 04:27:00;;;;;;;0.10;0.10;;;;;;;;;;5085598;28;20455;-68
2023/01/13 04:29:26;;;;;;;0.10;0.10;;;;;;;;;;5067601;28;20456;-68
2023/01/13 04:31:52;;;;;;;0.10;0.10;;;;;;;;;;5083657;28;20309;-69
2023/01/13 04:34:19;;;;;;;0.10;0.10;;;;;;;;;;5069424;28;20561;-70
2023/01/13 04:36:45;;;;;;;0.10;0.10;;;;;;;;;;5081809;28;20254;-69
2023/01/13 04:39:12;;;;;;;0.10;0.10;;;;;;;;;;5071025;28;20223;-69
2023/01/13 04:41:58;;;;;;;0.10;0.10;;;;;;;;;;5079776;28;20251;-69
2023/01/13 04:44:24;;;;;;;0.10;0.10;;;;;;;;;;5068249;28;20192;-69
2023/01/13 04:46:51;;;;;;;0.10;0.10;;;;;;;;;;5083079;28;20471;-69
2023/01/13 04:49:17;;;;;;;0.10;0.10;;;;;;;;;;5069674;28;20448;-69
2023/01/13 04:51:44;;;;;;;0.20;0.20;;;;;;;;;;5081052;28;20238;-69
2023/01/13 04:54:10;;;;;;;0.10;0.10;;;;;;;;;;5071247;28;20204;-69
2023/01/13 04:56:37;;;;;;;0.10;0.10;;;;;;;;;;5078913;28;20238;-69
2023/01/13 04:59:05;;;;;;;0.10;0.10;;;;;;;;;;5072962;28;20232;-69
2023/01/13 05:01:31;;;;;;;0.10;0.10;;;;;;;;;;5077066;28;20238;-69
2023/01/13 05:03:57;;;;;;;0.10;0.10;;;;;;;;;;5074385;28;20246;-69
2023/01/13 05:06:24;;;;;;;0.10;0.10;;;;;;;;;;5074966;28;20234;-69
2023/01/13 05:08:50;;;;;;;0.10;0.10;;;;;;;;;;5076781;28;20398;-69
2023/01/13 05:17:02;;;;;;;0.10;0.10;;;;;;;;;;5080816;28;20301;-69
2023/01/13 05:19:28;;;;;;;0.10;0.10;;;;;;;;;;5066568;28;20192;-67
2023/01/13 05:27:23;;;;;;;0.10;0.10;;;;;;;;;;5086309;28;20288;-68
2023/01/13 05:29:49;;;;;;;0.10;0.10;;;;;;;;;;5064421;28;20235;-68
2023/01/13 05:32:17;;;;;;;0.10;0.10;;;;;;;;;;5086499;28;20306;-69
2023/01/13 05:34:43;;;;;;;0.10;0.10;;;;;;;;;;5064716;28;20270;-70
2023/01/13 05:37:12;;;;;;;0.10;0.10;;;;;;;;;;5086486;28;20301;-70
2023/01/13 05:45:02;;;;;;;0.10;0.10;;;;;;;;;;5064351;28;20312;-70
2023/01/13 05:47:31;;;;;;;0.10;0.10;;;;;;;;;;5086196;28;20251;-70
2023/01/13 05:49:57;;;;;;;0.10;0.10;;;;;;;;;;5064475;28;20274;-70
2023/01/13 05:52:23;;;;;;;0.10;0.10;;;;;;;;;;5086209;28;20239;-70
2023/01/13 05:54:50;;;;;;;0.10;0.10;;;;;;;;;;5064279;28;20211;-71
2023/01/13 05:57:17;;;;;;;0.10;0.10;;;;;;;;;;5085817;28;20234;-71
2023/01/13 05:59:43;;;;;;;1.40;1.17;;;;;;;;;;5064333;28;20231;-70
2023/01/13 06:02:09;;;;;;;0.10;0.10;;;;;;;;;;5085817;28;20313;-70
2023/01/13 06:04:37;;;;;;;0.10;0.10;;;;;;;;;;5063881;28;20240;-71
2023/01/13 06:07:04;;;;;;;0.10;0.10;;;;;;;;;;5084510;28;20460;-70
2023/01/13 06:09:30;;;;;;;0.10;0.10;;;;;;;;;;5064908;28;20275;-71
2023/01/13 06:11:56;;;;;;;0.10;0.10;;;;;;;;;;5082919;28;20563;-71
2023/01/13 06:14:23;;;;;;;0.10;0.10;;;;;;;;;;5066151;28;20430;-70
2023/01/13 06:16:49;;;;;;;0.10;0.10;;;;;;;;;;5080671;28;20239;-70
2023/01/13 06:19:16;;;;;;;0.10;0.10;;;;;;;;;;5068705;28;20567;-70
2023/01/13 06:21:44;;;;;;;0.10;0.10;;;;;;;;;;5078717;28;20246;-71
2023/01/13 06:24:10;;;;;;;0.10;0.10;;;;;;;;;;5069731;28;20205;-71
2023/01/13 06:26:38;;;;;;;2.43;2.33;;;;;;;;;;5077098;28;20275;-71
2023/01/13 06:29:05;;;;;;;0.10;0.10;;;;;;;;;;5071064;28;20211;-71
2023/01/13 06:31:32;;;;;;;0.10;0.10;;;;;;;;;;5075654;28;20238;-71
2023/01/13 06:34:00;;;;;;;0.10;0.10;;;;;;;;;;5072944;28;20211;-71
2023/01/13 06:36:29;;;;;;;0.10;0.10;;;;;;;;;;5074446;28;20319;-70
2023/01/13 06:38:58;;;;;;;0.10;0.10;;;;;;;;;;5073754;28;20380;-70
2023/01/13 06:44:06;;;;;;;0.10;0.10;;;;;;;;;;5069822;28;20226;-71
2023/01/13 06:46:33;;;;;;;0.10;0.10;;;;;;;;;;5075991;28;20246;-70
2023/01/13 06:49:00;;;;;;;0.10;0.10;;;;;;;;;;5072501;28;20535;-71
2023/01/13 06:51:26;;;;;;;0.10;0.10;;;;;;;;;;5074279;28;20253;-70
2023/01/13 06:53:52;;;;;;;0.10;0.10;;;;;;;;;;5074509;28;20271;-71
2023/01/13 06:56:20;;;;;;;0.10;0.10;;;;;;;;;;5072270;28;20251;-71
2023/01/13 06:58:47;;;;;;;0.10;0.10;;;;;;;;;;5076208;28;20267;-71
2023/01/13 07:01:13;;;;;;;0.10;0.10;;;;;;;;;;5070427;28;20238;-70
2023/01/13 07:03:40;;;;;;;0.10;0.10;;;;;;;;;;5077959;28;20272;-71
2023/01/13 07:06:06;;;;;;;0.10;0.10;;;;;;;;;;5068685;28;20310;-72
2023/01/13 07:08:33;;;;;;;0.10;0.10;;;;;;;;;;5079665;28;20557;-71
2023/01/13 07:11:01;;;;;;;0.10;0.10;;;;;;;;;;5066814;28;20239;-72
2023/01/13 07:16:13;;;;;;;0.10;0.10;;;;;;;;;;5070439;28;20245;-72
2023/01/13 07:18:39;;;;;;;0.10;0.10;;;;;;;;;;5077559;28;20554;-72
2023/01/13 07:21:06;;;;;;;0.10;0.10;;;;;;;;;;5068490;28;20490;-71
2023/01/13 07:23:34;;;;;;;0.10;0.10;;;;;;;;;;5079308;28;20212;-71
2023/01/13 07:26:00;;;;;;;0.10;0.10;;;;;;;;;;5066803;28;20241;-72
2023/01/13 07:28:27;;;;;;;0.10;0.10;;;;;;;;;;5085002;28;20227;-74
2023/01/13 07:30:55;;;;;;;0.10;0.10;;;;;;;;;;5068739;28;20238;-74
2023/01/13 07:33:21;;;;;;;0.63;0.23;;;;;;;;;;5086470;28;20554;-74
2023/01/13 07:35:48;;;;;;;0.20;0.20;;;;;;;;;;5067145;28;20510;-72
2023/01/13 07:38:15;;;;;;;0.20;0.20;;;;;;;;;;5087771;28;20226;-72
2023/01/13 07:40:41;;;;;;;0.10;0.10;;;;;;;;;;5065384;28;20513;-71
2023/01/13 07:45:54;;;;;;;0.20;0.20;;;;;;;;;;5062878;28;20247;-71
2023/01/13 07:48:22;;;;;;;0.10;0.10;;;;;;;;;;5085775;28;20242;-72
2023/01/13 07:50:48;;;;;;;0.10;0.10;;;;;;;;;;5066828;28;20240;-72
2023/01/13 07:53:15;;;;;;;0.10;0.10;;;;;;;;;;5087595;28;20276;-71
2023/01/13 07:55:41;;;;;;;0.10;0.10;;;;;;;;;;5065124;28;20251;-71
2023/01/13 07:58:08;;;;;;;0.10;0.10;;;;;;;;;;5089311;28;20257;-72
2023/01/13 08:00:34;;;;;;;0.30;0.30;;;;;;;;;;5062921;28;20252;-71
2023/01/13 08:03:01;;;;;;;1.83;1.33;;;;;;;;;;5090817;28;20276;-71
2023/01/13 08:05:28;;;;;;;0.10;0.10;;;;;;;;;;5061216;28;20528;-71
2023/01/13 08:07:55;;;;;;;0.10;0.10;;;;;;;;;;5093001;28;20262;-72
2023/01/13 08:10:21;;;;;;;0.10;0.10;;;;;;;;;;5059318;28;20204;-71
2023/01/13 08:15:33;;;;;;;0.10;0.10;;;;;;;;;;5062031;28;20638;-71
2023/01/13 08:17:59;;;;;;;0.10;0.10;;;;;;;;;;5091340;28;20202;-71
2023/01/13 08:20:26;;;;;;;0.20;0.20;;;;;;;;;;5060257;28;20228;-71
2023/01/13 08:22:57;;;;;;;0.20;0.20;;;;;;;;;;5093344;28;20212;-71
2023/01/13 08:25:23;;;;;;;0.20;0.20;;;;;;;;;;5059756;28;20197;-72
2023/01/13 08:27:50;;;;;;;0.10;0.10;;;;;;;;;;5093272;28;20232;-73
2023/01/13 08:30:17;;;;;;;0.10;0.10;;;;;;;;;;5057443;28;20234;-72
2023/01/13 08:32:44;;;;;;;0.10;0.10;;;;;;;;;;5095074;28;20201;-73
2023/01/13 08:35:11;;;;;;;0.10;0.10;;;;;;;;;;5056210;28;20230;-72
2023/01/13 08:37:37;;;;;;;0.13;0.13;;;;;;;;;;5096400;28;20409;-73
2023/01/13 08:40:06;;;;;;;0.20;0.20;;;;;;;;;;5065439;28;20212;-73
2023/01/13 08:42:32;;;;;;;0.10;0.10;;;;;;;;;;5054388;28;20401;-73
2023/01/13 08:44:59;;;;;;;0.10;0.10;;;;;;;;;;5065603;28;20510;-72
2023/01/13 08:47:27;;;;;;;0.10;0.10;;;;;;;;;;5054244;28;20312;-73
2023/01/13 08:49:53;;;;;;;0.10;0.10;;;;;;;;;;5065580;28;20205;-72
2023/01/13 08:52:19;;;;;;;0.20;0.20;;;;;;;;;;5054208;28;20250;-72
2023/01/13 08:54:46;;;;;;;0.20;0.20;;;;;;;;;;5065213;28;20273;-72
2023/01/13 08:57:14;;;;;;;0.20;0.20;;;;;;;;;;5054171;28;20476;-72
2023/01/13 08:59:42;;;;;;;0.10;0.10;;;;;;;;;;5065423;28;20493;-72
2023/01/13 09:02:12;;;;;;;0.10;0.10;;;;;;;;;;5054053;28;20245;-72
2023/01/13 09:04:38;;;;;;;0.10;0.10;;;;;;;;;;5065323;28;20267;-72
2023/01/13 09:07:05;;;;;;;0.20;0.20;;;;;;;;;;5054053;28;20250;-75
2023/01/13 09:09:31;;;;;;;0.10;0.10;;;;;;;;;;5064895;28;20538;-74
2023/01/13 09:14:43;;;;;;;0.10;0.10;;;;;;;;;;5064895;28;20392;-74
2023/01/13 09:17:09;;;;;;;0.10;0.10;;;;;;;;;;5053712;28;20314;-75
2023/01/13 09:19:36;;;;;;;0.10;0.10;;;;;;;;;;5065068;28;20263;-75
2023/01/13 09:22:02;;;;;;;0.10;0.10;;;;;;;;;;5053811;28;20313;-73
2023/01/13 09:24:29;;;;;;;0.10;0.10;;;;;;;;;;5064563;28;20213;-75
2023/01/13 09:26:55;;;;;;;0.10;0.10;;;;;;;;;;5053538;28;20245;-73
2023/01/13 09:29:22;;;;;;;0.10;0.10;;;;;;;;;;5064640;28;20230;-73
2023/01/13 09:31:50;;;;;;;0.10;0.10;;;;;;;;;;5053578;28;20417;-73
2023/01/13 09:37:02;;;;;;;0.10;0.10;;;;;;;;;;5053578;28;20248;-73
2023/01/13 09:39:28;;;;;;;0.10;0.10;;;;;;;;;;5064260;28;20542;-74
2023/01/13 09:44:44;;;;;;;0.10;0.10;;;;;;;;;;5064454;28;20227;-72
2023/01/13 09:47:17;;;;;;;0.10;0.10;;;;;;;;;;5053283;28;20249;-73
2023/01/13 09:49:44;;;;;;;0.10;0.10;;;;;;;;;;5063568;28;20281;-73
2023/01/13 09:52:13;;;;;;;0.10;0.10;;;;;;;;;;5053294;28;20247;-72
2023/01/13 09:54:41;;;;;;;0.20;0.20;;;;;;;;;;5064319;28;20206;-72
2023/01/13 09:57:09;;;;;;;0.10;0.10;;;;;;;;;;5053035;28;20299;-72
2023/01/13 09:59:37;;;;;;;0.20;0.20;;;;;;;;;;5064306;28;20208;-71
2023/01/13 10:02:10;;;;;;;0.10;0.10;;;;;;;;;;5052753;28;20524;-72
2023/01/13 10:04:38;;;;;;;0.10;0.10;;;;;;;;;;5064254;28;20195;-72
2023/01/13 10:07:08;;;;;;;0.10;0.10;;;;;;;;;;5052852;28;20308;-71
2023/01/13 10:09:42;;;;;;;0.20;0.20;;;;;;;;;;5063662;28;20258;-71
2023/01/13 10:14:55;;;;;;;0.10;0.10;;;;;;;;;;5063837;28;20203;-72
2023/01/13 10:17:25;;;;;;;0.10;0.10;;;;;;;;;;5052751;28;20303;-73
2023/01/13 10:19:57;;;;;;;0.10;0.10;;;;;;;;;;5063981;28;20200;-73
2023/01/13 10:22:33;;;;;;;0.10;0.10;;;;;;;;;;5052709;28;20246;-73
2023/01/13 10:25:19;;;;;;;0.10;0.10;;;;;;;;;;5063860;28;20192;-73
2023/01/13 10:27:48;;;;;;;0.10;0.10;;;;;;;;;;5063219;28;20215;-74
2023/01/13 10:30:18;;;;;;;0.10;0.10;;;;;;;;;;5053116;28;20230;-72
2023/01/13 10:32:47;;;;;;;0.10;0.10;;;;;;;;;;5062488;28;20207;-73
2023/01/13 10:35:15;;;;;;;0.10;0.10;;;;;;;;;;5053556;28;20205;-73
2023/01/13 10:37:51;;;;;;;0.10;0.10;;;;;;;;;;5062604;28;20208;-74
2023/01/13 10:40:18;;;;;;;0.25;0.10;;;;;;;;;;5053375;28;20450;-74
2023/01/13 10:42:44;;;;;;;0.10;0.10;;;;;;;;;;5062582;28;20392;-73
2023/01/13 10:45:17;;;;;;;0.10;0.10;;;;;;;;;;5053542;28;20213;-73
2023/01/13 10:47:43;;;;;;;0.10;0.10;;;;;;;;;;5062611;28;20238;-72
2023/01/13 10:50:21;;;;;;;0.10;0.10;;;;;;;;;;5053670;28;20461;-73
2023/01/13 10:52:58;;;;;;;0.10;0.10;;;;;;;;;;5062589;28;20234;-73
2023/01/13 10:55:27;;;;;;;0.10;0.10;;;;;;;;;;5052934;28;20214;-73
2023/01/13 10:57:54;;;;;;;0.10;0.10;;;;;;;;;;5062625;28;20238;-71
2023/01/13 11:00:26;;;;;;;0.30;0.30;;;;;;;;;;5054288;28;20293;-71
2023/01/13 11:03:05;;;;;;;1.30;0.60;;;;;;;;;;5066702;28;20236;-71
2023/01/13 11:05:32;;;;;;;0.10;0.10;;;;;;;;;;5056956;28;20323;-71
2023/01/13 11:07:59;;;;;;;0.30;0.30;;;;;;;;;;5066451;28;20271;-71
2023/01/13 11:10:26;;;;;;;0.57;0.57;;;;;;;;;;5057099;28;20492;-71
2023/01/13 11:12:58;;;;;;;0.10;0.10;;;;;;;;;;5066400;28;20252;-71
2023/01/13 11:15:28;;;;;;;0.10;0.10;;;;;;;;;;5056883;28;20220;-71
2023/01/13 11:17:59;;;;;;;0.10;0.10;;;;;;;;;;5066478;28;20454;-71
2023/01/13 11:20:31;;;;;;;0.10;0.10;;;;;;;;;;5056764;28;20204;-72
2023/01/13 11:23:01;;;;;;;0.10;0.10;;;;;;;;;;5066331;28;20203;-71
2023/01/13 11:25:34;;;;;;;0.10;0.10;;;;;;;;;;5057017;28;20240;-71
2023/01/13 11:28:02;;;;;;;0.10;0.10;;;;;;;;;;5065835;28;20217;-72
2023/01/13 11:30:32;;;;;;;0.10;0.10;;;;;;;;;;5056596;28;20267;-73
2023/01/13 11:33:10;;;;;;;0.43;0.33;;;;;;;;;;5066057;28;20231;-72
2023/01/13 11:35:40;;;;;;;0.10;0.10;;;;;;;;;;5056318;28;20245;-74
2023/01/13 11:38:13;;;;;;;0.20;0.20;;;;;;;;;;5065938;28;20595;-73
2023/01/13 11:40:41;;;;;;;0.10;0.10;;;;;;;;;;5056242;28;20244;-73
2023/01/13 11:43:10;;;;;;;0.10;0.10;;;;;;;;;;5065948;28;20242;-72
2023/01/13 11:45:41;;;;;;;0.10;0.10;;;;;;;;;;5056284;28;20254;-72
2023/01/13 11:48:11;;;;;;;0.10;0.10;;;;;;;;;;5065505;28;20206;-72
2023/01/13 11:50:41;;;;;;;0.40;0.40;;;;;;;;;;5055957;28;20271;-73
2023/01/13 11:53:17;;;;;;;0.10;0.10;;;;;;;;;;5065776;28;20208;-73
2023/01/13 11:55:49;;;;;;;0.10;0.10;;;;;;;;;;5056131;28;20482;-73
2023/01/13 11:58:26;;;;;;;0.23;0.17;;;;;;;;;;5065938;28;20204;-72
2023/01/13 12:01:01;;;;;;;0.10;0.10;;;;;;;;;;5055870;28;20305;-72
2023/01/13 12:03:30;;;;;;;0.10;0.10;;;;;;;;;;5065820;28;20479;-73
2023/01/13 12:06:07;;;;;;;0.10;0.10;;;;;;;;;;5055611;28;20253;-73
2023/01/13 12:08:44;;;;;;;0.10;0.10;;;;;;;;;;5065685;28;20287;-73
2023/01/13 12:11:14;;;;;;;0.60;0.60;;;;;;;;;;5055122;28;20241;-73
2023/01/13 12:13:45;;;;;;;0.10;0.10;;;;;;;;;;5065006;28;20230;-73
2023/01/13 12:16:18;;;;;;;0.10;0.10;;;;;;;;;;5055461;28;20653;-73
2023/01/13 12:19:03;;;;;;;0.10;0.10;;;;;;;;;;5065396;28;20200;-73
2023/01/13 12:21:32;;;;;;;0.10;0.10;;;;;;;;;;5055013;28;20248;-73
2023/01/13 12:24:04;;;;;;;0.10;0.10;;;;;;;;;;5065478;28;20211;-72
2023/01/13 12:26:34;;;;;;;0.10;0.10;;;;;;;;;;5054898;28;20589;-73
2023/01/13 12:29:02;;;;;;;0.10;0.10;;;;;;;;;;5065647;28;20240;-73
2023/01/13 12:31:29;;;;;;;0.10;0.10;;;;;;;;;;5054924;28;20261;-73
2023/01/13 12:34:07;;;;;;;0.10;0.10;;;;;;;;;;5065473;28;20204;-73
2023/01/13 12:36:39;;;;;;;0.10;0.10;;;;;;;;;;5054778;28;20259;-73
2023/01/13 12:39:14;;;;;;;0.20;0.20;;;;;;;;;;5065545;28;20263;-73
2023/01/13 12:44:23;;;;;;;0.10;0.10;;;;;;;;;;5064510;28;20386;-72
2023/01/13 12:46:54;;;;;;;0.10;0.10;;;;;;;;;;5054434;28;20246;-73
2023/01/13 12:49:23;;;;;;;0.10;0.10;;;;;;;;;;5065015;28;20218;-72
2023/01/13 12:52:09;;;;;;;0.20;0.20;;;;;;;;;;5054373;28;20243;-73
2023/01/13 12:54:54;;;;;;;0.10;0.10;;;;;;;;;;5065495;28;20194;-73
2023/01/13 12:57:23;;;;;;;0.10;0.10;;;;;;;;;;5054105;28;20333;-72
2023/01/13 13:00:04;;;;;;;0.28;0.15;;;;;;;;;;5065429;28;20200;-73
2023/01/13 13:02:34;;;;;;;1.13;0.47;;;;;;;;;;5073465;28;20246;-72
2023/01/13 13:05:19;;;;;;;0.10;0.10;;;;;;;;;;5085284;28;20229;-73
2023/01/13 13:07:47;;;;;;;0.10;0.10;;;;;;;;;;5065210;28;20415;-73
2023/01/13 13:10:16;;;;;;;0.10;0.10;;;;;;;;;;5054639;28;20283;-72
2023/01/13 13:15:38;;;;;;;0.20;0.20;;;;;;;;;;5054499;28;20261;-73
2023/01/13 13:18:20;;;;;;;0.10;0.10;;;;;;;;;;5063872;28;20215;-74
2023/01/13 13:20:54;;;;;;;1.70;0.47;;;;;;;;;;5054169;28;20243;-72
2023/01/13 13:23:27;;;;;;;0.20;0.20;;;;;;;;;;5063947;28;20204;-72
2023/01/13 13:26:01;;;;;;;0.20;0.20;;;;;;;;;;5054069;28;20243;-72
2023/01/13 13:28:32;;;;;;;0.10;0.10;;;;;;;;;;5063850;28;20274;-73
2023/01/13 13:31:07;;;;;;;0.10;0.10;;;;;;;;;;5053997;28;20289;-73
2023/01/13 13:33:41;;;;;;;0.10;0.10;;;;;;;;;;5064131;28;20203;-73
2023/01/13 13:36:13;;;;;;;0.10;0.10;;;;;;;;;;5053979;28;20486;-73
2023/01/13 13:47:14;;;;;;;0.10;0.10;;;;;;;;;;5053204;28;20288;-73
2023/01/13 13:49:43;;;;;;;0.10;0.10;;;;;;;;;;5064256;28;20401;-73
2023/01/13 13:52:14;;;;;;;0.10;0.10;;;;;;;;;;5053089;28;20321;-73
2023/01/13 13:54:42;;;;;;;0.20;0.20;;;;;;;;;;5064366;28;20389;-73
2023/01/13 13:57:14;;;;;;;0.10;0.10;;;;;;;;;;5053031;28;20307;-74
2023/01/13 13:59:42;;;;;;;0.10;0.10;;;;;;;;;;5064147;28;20262;-73
2023/01/13 14:02:15;;;;;;;0.10;0.10;;;;;;;;;;5052979;28;20501;-72
2023/01/13 14:04:42;;;;;;;0.10;0.10;;;;;;;;;;5064204;28;20261;-74
2023/01/13 14:07:17;;;;;;;0.10;0.10;;;;;;;;;;5052738;28;20298;-73
2023/01/13 14:09:44;;;;;;;0.10;0.10;;;;;;;;;;5063651;28;20222;-73
2023/01/13 14:12:15;;;;;;;0.37;0.30;;;;;;;;;;5052632;28;20247;-72
2023/01/13 14:14:44;;;;;;;0.10;0.10;;;;;;;;;;5063886;28;20245;-73
2023/01/13 14:17:17;;;;;;;0.40;0.40;;;;;;;;;;5052615;28;20242;-72
2023/01/13 14:19:46;;;;;;;0.30;0.30;;;;;;;;;;5063957;28;20218;-72
2023/01/13 14:22:16;;;;;;;0.33;0.33;;;;;;;;;;5052652;28;20588;-72
2023/01/13 14:24:45;;;;;;;0.20;0.20;;;;;;;;;;5063566;28;20213;-73
2023/01/13 14:27:15;;;;;;;0.47;0.30;;;;;;;;;;5052372;28;20240;-73
2023/01/13 14:29:41;;;;;;;2.07;0.30;;;;;;;;;;5063737;28;20236;-73
2023/01/13 14:32:12;;;;;;;0.10;0.10;;;;;;;;;;5052529;28;20477;-74
2023/01/13 14:34:39;;;;;;;0.10;0.10;;;;;;;;;;5063464;28;20267;-73
2023/01/13 14:37:21;;;;;;;0.10;0.10;;;;;;;;;;5052371;28;20287;-73
2023/01/13 14:39:47;;;;;;;0.53;0.53;;;;;;;;;;5063544;28;20189;-73
2023/01/13 14:42:16;;;;;;;0.10;0.10;;;;;;;;;;5052517;28;20474;-73
2023/01/13 14:44:44;;;;;;;0.10;0.10;;;;;;;;;;5063673;28;20503;-73
2023/01/13 14:47:19;;;;;;;0.10;0.10;;;;;;;;;;5052155;28;20314;-74
2023/01/13 14:49:51;;;;;;;0.10;0.10;;;;;;;;;;5063590;28;20254;-73
2023/01/13 14:52:19;;;;;;;0.10;0.10;;;;;;;;;;5052381;28;20442;-73
2023/01/13 14:54:47;;;;;;;0.10;0.10;;;;;;;;;;5063588;28;20440;-73
2023/01/13 14:57:15;;;;;;;0.10;0.10;;;;;;;;;;5052243;28;20578;-72
2023/01/13 14:59:42;;;;;;;1.93;1.17;;;;;;;;;;5063249;28;20200;-72
2023/01/13 15:02:28;;;;;;;0.10;0.10;;;;;;;;;;5052286;28;20434;-73
2023/01/13 15:04:58;;;;;;;0.10;0.10;;;;;;;;;;5063485;28;20231;-72
2023/01/13 15:07:25;;;;;;;0.17;0.17;;;;;;;;;;5052105;28;20485;-72
2023/01/13 15:09:53;;;;;;;0.20;0.20;;;;;;;;;;5063307;28;20460;-73
2023/01/13 15:12:23;;;;;;;0.10;0.10;;;;;;;;;;5052109;28;20251;-72
2023/01/13 15:14:50;;;;;;;0.10;0.10;;;;;;;;;;5063449;28;20248;-73
2023/01/13 15:17:17;;;;;;;0.10;0.10;;;;;;;;;;5052114;28;20286;-72
2023/01/13 15:19:43;;;;;;;3.43;3.23;;;;;;;;;;5063088;28;20275;-73
2023/01/13 15:22:11;;;;;;;0.17;0.17;;;;;;;;;;5051994;28;20609;-73
2023/01/13 15:24:38;;;;;;;0.13;0.13;;;;;;;;;;5063307;28;20204;-73
2023/01/13 15:27:09;;;;;;;2.77;1.70;;;;;;;;;;5051896;28;20308;-73
2023/01/13 15:29:36;;;;;;;0.10;0.10;;;;;;;;;;5063157;28;20244;-73
2023/01/13 15:32:02;;;;;;;0.10;0.10;;;;;;;;;;5051956;28;20302;-73
2023/01/13 15:34:29;;;;;;;0.10;0.10;;;;;;;;;;5063081;28;20393;-73
2023/01/13 15:36:55;;;;;;;0.20;0.20;;;;;;;;;;5051811;28;20286;-73
2023/01/13 15:39:23;;;;;;;0.13;0.13;;;;;;;;;;5062722;28;20214;-73
2023/01/13 15:47:17;;;;;;;0.10;0.10;;;;;;;;;;5052545;28;20263;-73
2023/01/13 15:49:44;;;;;;;0.10;0.10;;;;;;;;;;5066653;28;20539;-73
2023/01/13 15:52:17;;;;;;;0.10;0.10;;;;;;;;;;5055479;28;20302;-72
2023/01/13 15:54:45;;;;;;;0.20;0.20;;;;;;;;;;5066551;28;20265;-73
2023/01/13 15:57:18;;;;;;;0.10;0.10;;;;;;;;;;5055465;28;20303;-74
2023/01/13 15:59:44;;;;;;;0.10;0.10;;;;;;;;;;5066695;28;20215;-74
2023/01/13 16:02:14;;;;;;;0.10;0.10;;;;;;;;;;5055131;28;20563;-73